Time;durP1;ratioP1;P1;durP2;ratioP2;P2;SDS_P1;SDS_P2;PMS_P1;PMS_P2;Temp;Humidity;BMP_temperature;BMP_pressure;BME280_temperature;BME280_humidity;BME280_pressure;Samples;Min_cycle;Max_cycle;Signal;HPM_P1;HPM_P2
2022/07/16 00:01:23;;;;;;;2.90;1.17;;;16.20;99.10;;;;;;4991423;28;20042;-75
2022/07/16 00:04:00;;;;;;;3.30;1.27;;;16.20;99.10;;;;;;4990470;28;20539;-75
2022/07/16 00:06:27;;;;;;;2.85;1.67;;;16.30;99.10;;;;;;4990828;28;20055;-76
2022/07/16 00:08:53;;;;;;;3.03;0.90;;;16.20;99.00;;;;;;4992212;28;20065;-75
2022/07/16 00:11:19;;;;;;;3.33;1.23;;;16.30;99.10;;;;;;4989058;28;20030;-75
2022/07/16 00:13:45;;;;;;;2.83;1.20;;;16.30;99.10;;;;;;4992446;28;20105;-75
2022/07/16 00:16:11;;;;;;;4.50;1.27;;;16.40;99.00;;;;;;4988899;28;20034;-75
2022/07/16 00:21:22;;;;;;;3.30;1.42;;;16.50;99.00;;;;;;4990416;28;20045;-75
2022/07/16 00:23:47;;;;;;;3.72;1.48;;;16.50;98.90;;;;;;4990142;28;20034;-75
2022/07/16 00:26:13;;;;;;;2.63;1.17;;;16.60;98.80;;;;;;4988814;28;20495;-75
2022/07/16 00:28:39;;;;;;;3.53;0.90;;;16.60;98.60;;;;;;4990180;28;20451;-75
2022/07/16 00:31:04;;;;;;;3.92;1.00;;;16.60;98.60;;;;;;4987190;28;20044;-75
2022/07/16 00:33:30;;;;;;;5.32;1.10;;;16.70;98.50;;;;;;4992029;28;20046;-76
2022/07/16 00:35:55;;;;;;;4.20;0.90;;;16.70;98.30;;;;;;4990009;28;20113;-75
2022/07/16 00:38:21;;;;;;;2.38;0.73;;;16.70;98.20;;;;;;4990105;28;20034;-75
2022/07/16 00:40:47;;;;;;;2.35;1.05;;;16.80;98.10;;;;;;4990997;28;20046;-75
2022/07/16 00:43:13;;;;;;;3.40;0.95;;;16.80;98.10;;;;;;4989582;28;20335;-75
2022/07/16 00:45:39;;;;;;;3.45;1.00;;;16.80;98.10;;;;;;4989058;28;20038;-76
2022/07/16 00:48:06;;;;;;;2.30;0.80;;;16.90;98.10;;;;;;4990969;28;20018;-76
2022/07/16 00:50:33;;;;;;;3.97;1.13;;;16.90;98.00;;;;;;4989409;28;20053;-76
2022/07/16 00:52:59;;;;;;;4.90;1.10;;;16.90;98.10;;;;;;4991163;28;20414;-76
2022/07/16 00:55:25;;;;;;;3.95;1.23;;;16.90;98.10;;;;;;4990329;28;20496;-75
2022/07/16 00:57:51;;;;;;;2.17;0.90;;;17.00;98.10;;;;;;4991072;28;20034;-75
2022/07/16 01:00:17;;;;;;;2.80;0.90;;;17.00;98.10;;;;;;4989542;28;20038;-75
2022/07/16 01:02:43;;;;;;;3.20;1.08;;;17.00;98.20;;;;;;4990294;28;20018;-75
2022/07/16 01:05:09;;;;;;;3.35;1.05;;;17.00;98.20;;;;;;4984212;28;20026;-75
2022/07/16 01:07:35;;;;;;;3.17;1.00;;;17.00;98.20;;;;;;4987854;28;20057;-75
2022/07/16 01:10:03;;;;;;;2.15;0.90;;;17.00;98.30;;;;;;4991278;28;20398;-75
2022/07/16 01:12:29;;;;;;;3.75;1.00;;;17.00;98.30;;;;;;4988792;28;20031;-76
2022/07/16 01:14:57;;;;;;;3.15;0.90;;;17.00;98.40;;;;;;4989274;28;20045;-75
2022/07/16 01:17:22;;;;;;;2.35;0.93;;;17.00;98.50;;;;;;4988966;28;20181;-75
2022/07/16 01:19:48;;;;;;;4.55;1.05;;;17.00;98.50;;;;;;4989750;28;20124;-76
2022/07/16 01:22:18;;;;;;;2.83;0.98;;;17.00;98.50;;;;;;4988384;28;20085;-75
2022/07/16 01:24:44;;;;;;;2.90;1.05;;;17.00;98.60;;;;;;4989802;28;20038;-75
2022/07/16 01:27:09;;;;;;;3.28;1.33;;;17.00;98.70;;;;;;4990803;28;20026;-75
2022/07/16 01:29:35;;;;;;;4.25;0.88;;;16.90;98.70;;;;;;4988844;28;20037;-75
2022/07/16 01:32:00;;;;;;;2.75;1.00;;;16.90;98.80;;;;;;4990725;28;20113;-75
2022/07/16 01:34:26;;;;;;;3.58;1.00;;;16.90;98.90;;;;;;4987295;28;20100;-75
2022/07/16 01:37:01;;;;;;;3.55;1.00;;;16.90;99.00;;;;;;4987941;28;20424;-75
2022/07/16 01:39:28;;;;;;;3.97;1.50;;;16.90;99.00;;;;;;4986462;28;20505;-75
2022/07/16 01:41:57;;;;;;;6.93;1.33;;;16.90;99.10;;;;;;4990164;28;20041;-75
2022/07/16 01:44:24;;;;;;;4.30;0.90;;;16.90;99.20;;;;;;4988281;28;20041;-75
2022/07/16 01:46:50;;;;;;;6.20;2.15;;;16.90;99.30;;;;;;4990449;28;20034;-75
2022/07/16 01:49:16;;;;;;;4.30;0.93;;;16.90;99.30;;;;;;4989532;28;20092;-75
2022/07/16 01:51:41;;;;;;;2.35;0.88;;;16.90;99.40;;;;;;4989971;28;20038;-75
2022/07/16 01:54:07;;;;;;;3.30;1.02;;;16.90;99.50;;;;;;4989220;28;20100;-75
2022/07/16 01:56:33;;;;;;;5.57;1.10;;;16.90;99.70;;;;;;4992448;28;20133;-76
2022/07/16 01:58:58;;;;;;;6.40;1.02;;;16.90;99.80;;;;;;4992803;28;20028;-76
2022/07/16 02:01:24;;;;;;;4.40;1.00;;;16.90;99.80;;;;;;4992498;28;20042;-77
2022/07/16 02:03:49;;;;;;;4.57;1.15;;;16.90;99.90;;;;;;4992264;28;20038;-76
2022/07/16 02:06:15;;;;;;;6.07;1.30;;;16.90;99.80;;;;;;4991959;28;20406;-76
2022/07/16 02:08:40;;;;;;;6.80;0.85;;;16.90;99.80;;;;;;4992627;28;20477;-76
2022/07/16 02:11:07;;;;;;;5.35;1.25;;;16.90;99.80;;;;;;4991392;28;20034;-76
2022/07/16 02:13:33;;;;;;;4.85;1.42;;;16.90;99.80;;;;;;4994477;28;20442;-76
2022/07/16 02:15:58;;;;;;;3.05;1.10;;;16.90;99.80;;;;;;4993132;28;20027;-78
2022/07/16 02:18:24;;;;;;;3.13;1.08;;;16.90;99.90;;;;;;4992506;28;20040;-76
2022/07/16 02:20:49;;;;;;;2.10;0.90;;;17.00;99.90;;;;;;4993714;28;20121;-76
2022/07/16 02:23:15;;;;;;;3.08;1.08;;;16.90;99.90;;;;;;4990114;28;20479;-76
2022/07/16 02:25:40;;;;;;;3.78;1.13;;;16.90;99.90;;;;;;4993456;28;20026;-76
2022/07/16 02:28:06;;;;;;;2.92;1.15;;;17.00;99.90;;;;;;4990953;28;20031;-76
2022/07/16 02:30:34;;;;;;;4.15;1.13;;;17.00;99.90;;;;;;4991675;28;20054;-76
2022/07/16 02:32:59;;;;;;;6.13;1.40;;;17.00;99.90;;;;;;4991565;28;20491;-76
2022/07/16 02:35:25;;;;;;;4.03;1.27;;;17.00;99.90;;;;;;4991489;28;20045;-77
2022/07/16 02:37:51;;;;;;;3.78;1.38;;;16.90;99.90;;;;;;4993025;28;20022;-77
2022/07/16 02:40:17;;;;;;;2.58;1.23;;;16.90;99.90;;;;;;4992961;28;20122;-76
2022/07/16 02:42:42;;;;;;;2.63;1.30;;;16.90;99.90;;;;;;4992174;28;20057;-76
2022/07/16 02:45:09;;;;;;;4.80;1.23;;;17.00;99.90;;;;;;4990160;28;20030;-77
2022/07/16 02:47:35;;;;;;;4.13;1.02;;;16.90;99.90;;;;;;4992370;28;20038;-76
2022/07/16 02:50:00;;;;;;;4.13;1.10;;;16.90;99.90;;;;;;4993270;28;20038;-76
2022/07/16 02:52:26;;;;;;;3.05;1.17;;;16.90;99.90;;;;;;4992723;28;20068;-76
2022/07/16 02:54:52;;;;;;;6.13;1.40;;;17.00;99.90;;;;;;4993032;28;20027;-76
2022/07/16 02:57:17;;;;;;;2.40;1.10;;;16.90;99.90;;;;;;4990587;28;20067;-76
2022/07/16 02:59:43;;;;;;;3.55;1.00;;;16.90;99.90;;;;;;4990276;28;20452;-76
2022/07/16 03:02:09;;;;;;;3.15;1.33;;;17.00;99.90;;;;;;5013242;28;20661;-77
2022/07/16 03:04:35;;;;;;;3.08;1.10;;;16.90;99.90;;;;;;4992392;28;20383;-76
2022/07/16 03:07:00;;;;;;;4.75;1.60;;;16.90;99.90;;;;;;4989620;28;20037;-76
2022/07/16 03:09:26;;;;;;;5.65;1.73;;;16.90;99.90;;;;;;4990715;28;20034;-77
2022/07/16 03:11:51;;;;;;;3.42;1.85;;;16.90;99.90;;;;;;4993084;28;20026;-76
2022/07/16 03:14:17;;;;;;;4.78;1.58;;;16.90;99.90;;;;;;4992008;28;20030;-76
2022/07/16 03:16:42;;;;;;;6.88;1.52;;;16.80;99.90;;;;;;4989618;28;20390;-76
2022/07/16 03:19:08;;;;;;;3.85;1.95;;;16.70;99.90;;;;;;4989622;28;20486;-77
2022/07/16 03:21:33;;;;;;;4.28;1.65;;;16.70;99.90;;;;;;4992408;28;20038;-77
2022/07/16 03:23:59;;;;;;;5.55;1.88;;;16.60;99.90;;;;;;4991080;28;20077;-76
2022/07/16 03:26:24;;;;;;;6.43;2.10;;;16.50;99.90;;;;;;4990366;28;20041;-76
2022/07/16 03:28:50;;;;;;;3.15;1.73;;;16.50;99.90;;;;;;4993115;28;20030;-76
2022/07/16 03:31:17;;;;;;;5.88;1.80;;;16.40;99.90;;;;;;4989811;28;20034;-78
2022/07/16 03:33:43;;;;;;;4.50;2.50;;;16.30;99.90;;;;;;4991642;28;20050;-77
2022/07/16 03:36:09;;;;;;;3.38;2.22;;;16.30;99.90;;;;;;4990209;28;20037;-76
2022/07/16 03:41:18;;;;;;;6.47;2.67;;;16.10;99.90;;;;;;4991776;28;20112;-76
2022/07/16 03:43:44;;;;;;;5.70;2.78;;;16.10;99.90;;;;;;4992228;28;20070;-76
2022/07/16 03:46:12;;;;;;;6.22;2.38;;;16.10;99.90;;;;;;4987632;28;20033;-76
2022/07/16 03:48:39;;;;;;;5.97;2.47;;;16.10;99.90;;;;;;4991445;28;20026;-77
2022/07/16 03:51:06;;;;;;;7.03;3.03;;;16.00;99.90;;;;;;4992189;28;20515;-76
2022/07/16 03:53:34;;;;;;;3.88;2.75;;;16.00;99.90;;;;;;4986464;28;20147;-76
2022/07/16 03:56:00;;;;;;;6.55;3.00;;;16.00;99.90;;;;;;4989739;28;20513;-76
2022/07/16 03:58:26;;;;;;;6.25;2.88;;;16.00;99.90;;;;;;4989702;28;20042;-76
2022/07/16 04:00:52;;;;;;;6.75;2.45;;;16.00;99.90;;;;;;4991243;28;20034;-76
2022/07/16 04:03:18;;;;;;;4.80;3.08;;;16.00;99.90;;;;;;4990586;28;20326;-76
2022/07/16 04:05:43;;;;;;;7.22;2.95;;;16.00;99.90;;;;;;4992729;28;20078;-76
2022/07/16 04:08:09;;;;;;;6.55;3.45;;;16.00;99.90;;;;;;4990364;28;20030;-76
2022/07/16 04:10:35;;;;;;;8.30;3.03;;;16.00;99.90;;;;;;4991006;28;20442;-76
2022/07/16 04:13:00;;;;;;;5.93;3.30;;;16.00;99.90;;;;;;4990464;28;20049;-76
2022/07/16 04:15:26;;;;;;;7.00;3.22;;;16.00;99.90;;;;;;4988994;28;20490;-76
2022/07/16 04:17:52;;;;;;;6.72;3.75;;;16.10;99.90;;;;;;4990390;28;20023;-76
2022/07/16 04:20:18;;;;;;;6.82;3.20;;;16.00;99.90;;;;;;4989270;28;20073;-76
2022/07/16 04:22:44;;;;;;;9.50;3.20;;;16.00;99.90;;;;;;4990466;28;20415;-77
2022/07/16 04:25:09;;;;;;;7.13;3.50;;;16.00;99.90;;;;;;4989190;28;20232;-76
2022/07/16 04:27:35;;;;;;;7.82;3.95;;;16.10;99.90;;;;;;4991275;28;20050;-76
2022/07/16 04:30:00;;;;;;;8.70;4.28;;;16.10;99.90;;;;;;4991210;28;20054;-76
2022/07/16 04:32:26;;;;;;;8.30;4.25;;;16.10;99.90;;;;;;4991353;28;20051;-76
2022/07/16 04:34:51;;;;;;;7.57;4.05;;;16.10;99.90;;;;;;4987798;28;20119;-76
2022/07/16 04:37:17;;;;;;;7.03;4.25;;;16.00;99.90;;;;;;4990971;28;20035;-76
2022/07/16 04:39:42;;;;;;;6.13;4.30;;;16.00;99.90;;;;;;4991162;28;20038;-76
2022/07/16 04:42:08;;;;;;;8.50;4.55;;;16.00;99.90;;;;;;4990282;28;20163;-76
2022/07/16 04:44:34;;;;;;;6.00;3.90;;;16.00;99.90;;;;;;4990689;28;20046;-76
2022/07/16 04:46:59;;;;;;;8.55;4.05;;;16.00;99.90;;;;;;4987840;28;20041;-76
2022/07/16 04:49:25;;;;;;;8.80;4.63;;;16.00;99.90;;;;;;4992020;28;20031;-77
2022/07/16 04:51:50;;;;;;;6.93;4.43;;;16.00;99.90;;;;;;4990034;28;20026;-77
2022/07/16 04:54:16;;;;;;;8.52;4.22;;;16.00;99.90;;;;;;4991030;28;20511;-76
2022/07/16 04:56:41;;;;;;;7.00;3.97;;;16.00;99.90;;;;;;4990301;28;20030;-76
2022/07/16 04:59:07;;;;;;;7.35;3.92;;;16.10;99.90;;;;;;4989615;28;20390;-76
2022/07/16 05:01:32;;;;;;;7.18;3.95;;;16.20;99.90;;;;;;4989401;28;20527;-76
2022/07/16 05:03:58;;;;;;;5.50;2.92;;;16.30;99.90;;;;;;4991242;28;20037;-77
2022/07/16 05:06:23;;;;;;;6.90;3.20;;;16.50;99.90;;;;;;4989563;28;20030;-77
2022/07/16 05:08:50;;;;;;;5.45;2.72;;;16.70;99.90;;;;;;4989516;28;20052;-76
2022/07/16 05:11:15;;;;;;;6.70;2.53;;;16.80;99.90;;;;;;4990660;28;20026;-76
2022/07/16 05:13:41;;;;;;;8.05;2.60;;;16.90;99.90;;;;;;4989135;28;20037;-76
2022/07/16 05:16:06;;;;;;;8.10;2.60;;;17.00;99.90;;;;;;4986281;28;20445;-76
2022/07/16 05:18:32;;;;;;;6.45;1.70;;;17.00;99.90;;;;;;4988250;28;20471;-76
2022/07/16 05:20:57;;;;;;;3.33;1.63;;;17.00;99.90;;;;;;4992671;28;20113;-76
2022/07/16 05:23:23;;;;;;;4.78;2.17;;;17.10;99.90;;;;;;4987407;28;20064;-76
2022/07/16 05:25:48;;;;;;;4.63;1.75;;;17.00;99.90;;;;;;5011393;28;20130;-76
2022/07/16 05:28:14;;;;;;;4.75;1.42;;;17.10;99.90;;;;;;4994093;28;20026;-76
2022/07/16 05:30:40;;;;;;;3.33;1.13;;;17.20;99.90;;;;;;4989449;28;20022;-76
2022/07/16 05:33:05;;;;;;;4.90;1.00;;;17.50;99.90;;;;;;4993483;28;20057;-77
2022/07/16 05:35:31;;;;;;;2.63;0.70;;;17.90;99.90;;;;;;4990013;28;20034;-76
2022/07/16 05:37:56;;;;;;;2.38;0.75;;;18.10;99.90;;;;;;4988997;28;20030;-76
2022/07/16 05:40:22;;;;;;;2.42;0.52;;;18.40;99.90;;;;;;4993573;28;20050;-77
2022/07/16 05:42:47;;;;;;;2.58;0.60;;;18.80;99.90;;;;;;4991948;28;20423;-74
2022/07/16 05:45:13;;;;;;;3.95;0.85;;;18.90;99.90;;;;;;4988529;28;20100;-76
2022/07/16 05:47:38;;;;;;;2.15;0.50;;;19.00;99.90;;;;;;4987237;28;20042;-76
2022/07/16 05:50:06;;;;;;;4.22;0.65;;;19.10;99.90;;;;;;4991141;28;20072;-76
2022/07/16 05:52:32;;;;;;;5.18;0.73;;;19.10;99.90;;;;;;4990352;28;20521;-73
2022/07/16 05:54:57;;;;;;;1.65;0.40;;;19.10;99.90;;;;;;4994153;28;20054;-74
2022/07/16 05:57:23;;;;;;;2.88;0.50;;;19.20;99.90;;;;;;4994350;28;20031;-73
2022/07/16 05:59:49;;;;;;;3.40;0.40;;;19.20;99.90;;;;;;4994328;28;20034;-73
2022/07/16 06:02:14;;;;;;;4.43;0.40;;;19.20;99.90;;;;;;4993637;28;20031;-74
2022/07/16 06:04:40;;;;;;;5.88;0.40;;;19.20;99.90;;;;;;4994101;28;20033;-74
2022/07/16 06:07:05;;;;;;;2.60;0.40;;;19.20;99.90;;;;;;4993874;28;20034;-75
2022/07/16 06:09:31;;;;;;;5.47;0.40;;;19.20;99.90;;;;;;4992921;28;20034;-74
2022/07/16 06:11:56;;;;;;;2.72;0.30;;;19.30;99.90;;;;;;4994336;28;20026;-75
2022/07/16 06:14:22;;;;;;;2.58;0.60;;;19.30;99.90;;;;;;4993503;28;20031;-74
2022/07/16 06:16:48;;;;;;;3.17;0.30;;;19.30;99.90;;;;;;4986110;28;20434;-75
2022/07/16 06:19:14;;;;;;;1.88;0.30;;;19.40;99.90;;;;;;4993521;28;20487;-74
2022/07/16 06:21:39;;;;;;;1.83;0.30;;;19.50;99.90;;;;;;4992905;28;20507;-75
2022/07/16 06:24:05;;;;;;;1.27;0.30;;;19.50;99.90;;;;;;4992324;28;20026;-75
2022/07/16 06:26:31;;;;;;;2.72;0.40;;;19.50;99.90;;;;;;4993255;28;20030;-74
2022/07/16 06:28:56;;;;;;;1.63;0.30;;;19.60;99.90;;;;;;4993760;28;20085;-75
2022/07/16 06:31:22;;;;;;;4.03;0.30;;;19.50;99.90;;;;;;4990121;28;20113;-74
2022/07/16 06:33:47;;;;;;;3.60;0.60;;;19.50;99.90;;;;;;4990936;28;20038;-74
2022/07/16 06:36:13;;;;;;;3.33;0.30;;;19.50;99.90;;;;;;4990435;28;20034;-74
2022/07/16 06:38:38;;;;;;;3.40;0.40;;;19.50;99.90;;;;;;4992841;28;20500;-75
2022/07/16 06:41:04;;;;;;;2.20;0.30;;;19.40;99.90;;;;;;4990020;28;20423;-74
2022/07/16 06:43:30;;;;;;;2.67;0.40;;;19.40;99.90;;;;;;4987860;28;20129;-75
2022/07/16 06:45:55;;;;;;;2.35;0.30;;;19.30;99.90;;;;;;4987456;28;20058;-74
2022/07/16 06:48:22;;;;;;;1.08;0.30;;;19.30;99.90;;;;;;4990271;28;20128;-75
2022/07/16 06:50:48;;;;;;;1.48;0.30;;;19.40;99.90;;;;;;4992644;28;20093;-75
2022/07/16 06:53:13;;;;;;;1.77;0.32;;;19.40;99.90;;;;;;4990689;28;20038;-75
2022/07/16 06:55:39;;;;;;;3.65;0.40;;;19.50;99.90;;;;;;4991853;28;20042;-75
2022/07/16 06:58:05;;;;;;;3.60;0.25;;;19.50;99.90;;;;;;4985240;28;20054;-75
2022/07/16 07:00:30;;;;;;;4.68;0.40;;;19.40;99.90;;;;;;4988350;28;20090;-76
2022/07/16 07:02:56;;;;;;;2.55;0.30;;;19.40;99.90;;;;;;4993139;28;20038;-75
2022/07/16 07:05:21;;;;;;;2.42;0.50;;;19.40;99.90;;;;;;4993096;28;20126;-75
2022/07/16 07:07:47;;;;;;;2.28;0.50;;;19.40;99.90;;;;;;4991251;28;20057;-76
2022/07/16 07:10:13;;;;;;;6.78;0.50;;;19.40;99.90;;;;;;4993708;28;20099;-75
2022/07/16 07:12:38;;;;;;;4.95;0.40;;;19.40;99.90;;;;;;4993067;28;20536;-75
2022/07/16 07:15:05;;;;;;;4.07;0.30;;;19.40;99.60;;;;;;4990024;28;20049;-75
2022/07/16 07:17:30;;;;;;;2.17;0.30;;;19.30;99.40;;;;;;4993509;28;20022;-75
2022/07/16 07:19:56;;;;;;;3.65;0.40;;;19.40;99.40;;;;;;4991554;28;20092;-75
2022/07/16 07:22:22;;;;;;;5.88;0.50;;;19.40;99.10;;;;;;4988246;28;20027;-75
2022/07/16 07:24:48;;;;;;;2.15;0.30;;;19.40;98.90;;;;;;4993734;28;20033;-75
2022/07/16 07:27:14;;;;;;;3.95;0.32;;;19.50;98.60;;;;;;4986644;28;20026;-75
2022/07/16 07:29:40;;;;;;;2.35;0.40;;;19.60;98.40;;;;;;4976442;28;20041;-75
2022/07/16 07:32:05;;;;;;;3.28;0.40;;;19.70;98.20;;;;;;4989882;28;20038;-75
2022/07/16 07:34:31;;;;;;;2.72;0.30;;;19.80;97.70;;;;;;4992575;28;20062;-76
2022/07/16 07:36:56;;;;;;;3.58;0.60;;;19.80;97.20;;;;;;4990776;28;20026;-75
2022/07/16 07:39:22;;;;;;;1.23;0.20;;;19.70;97.00;;;;;;4991571;28;20077;-76
2022/07/16 07:41:47;;;;;;;6.43;0.20;;;19.80;97.10;;;;;;4991822;28;20085;-74
2022/07/16 07:44:13;;;;;;;1.70;0.30;;;19.90;96.90;;;;;;4992438;28;20022;-75
2022/07/16 07:46:38;;;;;;;2.17;0.30;;;20.00;96.40;;;;;;4991023;28;20022;-75
2022/07/16 07:49:05;;;;;;;2.10;0.20;;;20.10;96.30;;;;;;4989787;28;20019;-74
2022/07/16 07:51:30;;;;;;;2.92;0.20;;;20.20;96.00;;;;;;4991170;28;20057;-74
2022/07/16 07:53:56;;;;;;;1.70;0.20;;;20.30;95.80;;;;;;4992368;28;20129;-74
2022/07/16 07:56:21;;;;;;;1.45;0.30;;;20.30;95.40;;;;;;4990646;28;20030;-75
2022/07/16 07:58:47;;;;;;;3.47;0.30;;;20.50;95.00;;;;;;4993092;28;20034;-75
2022/07/16 08:01:13;;;;;;;5.55;0.50;;;20.50;94.40;;;;;;4992151;28;20046;-75
2022/07/16 08:03:38;;;;;;;3.13;0.30;;;20.50;94.20;;;;;;4992858;28;20033;-76
2022/07/16 08:06:04;;;;;;;5.78;0.40;;;20.60;93.90;;;;;;4985540;28;20472;-76
2022/07/16 08:08:29;;;;;;;3.10;0.30;;;20.60;93.20;;;;;;4985568;28;20034;-75
2022/07/16 08:10:55;;;;;;;2.08;0.20;;;20.60;93.00;;;;;;4990093;28;20031;-75
2022/07/16 08:13:20;;;;;;;3.13;0.20;;;20.40;92.80;;;;;;4994627;28;20501;-76
2022/07/16 08:15:46;;;;;;;1.50;0.30;;;20.40;92.90;;;;;;4992536;28;20042;-77
2022/07/16 08:18:12;;;;;;;2.47;0.40;;;20.40;92.30;;;;;;4989541;28;20022;-76
2022/07/16 08:20:38;;;;;;;4.97;0.30;;;20.30;92.10;;;;;;4992119;28;20037;-76
2022/07/16 08:23:04;;;;;;;3.15;0.30;;;20.40;92.20;;;;;;4988585;28;20022;-76
2022/07/16 08:25:44;;;;;;;2.67;0.30;;;20.50;91.60;;;;;;4991163;28;20537;-77
2022/07/16 08:28:11;;;;;;;1.58;0.20;;;20.50;91.00;;;;;;4991462;28;20540;-76
2022/07/16 08:30:36;;;;;;;3.45;0.45;;;20.40;90.60;;;;;;4984178;28;20049;-77
2022/07/16 08:33:02;;;;;;;1.52;0.30;;;20.40;90.70;;;;;;4984673;28;20034;-76
2022/07/16 08:35:27;;;;;;;3.08;0.20;;;20.50;90.40;;;;;;4992487;28;20394;-76
2022/07/16 08:37:53;;;;;;;2.55;0.20;;;20.60;90.30;;;;;;4987830;28;20521;-77
2022/07/16 08:40:21;;;;;;;1.95;0.20;;;20.80;90.10;;;;;;4985817;28;20472;-76
2022/07/16 08:42:47;;;;;;;5.78;0.20;;;20.90;89.40;;;;;;4986343;28;20177;-77
2022/07/16 08:45:16;;;;;;;4.25;0.30;;;20.80;89.20;;;;;;4990562;28;20038;-76
2022/07/16 08:47:42;;;;;;;2.63;0.55;;;20.80;89.00;;;;;;4984613;28;20031;-76
2022/07/16 08:50:13;;;;;;;1.65;0.20;;;21.00;89.60;;;;;;4988641;28;20514;-76
2022/07/16 08:52:47;;;;;;;2.55;0.20;;;21.20;88.00;;;;;;4990848;28;20077;-78
2022/07/16 08:55:13;;;;;;;2.10;0.30;;;21.30;87.00;;;;;;4988728;28;20038;-76
2022/07/16 08:57:40;;;;;;;0.95;0.20;;;21.40;87.10;;;;;;4983408;28;20034;-78
2022/07/16 09:00:13;;;;;;;1.40;0.17;;;21.60;86.40;;;;;;4988574;28;20038;-77
2022/07/16 09:02:39;;;;;;;1.17;0.20;;;21.70;85.00;;;;;;4991052;28;20053;-77
2022/07/16 09:05:05;;;;;;;3.75;0.30;;;21.70;84.80;;;;;;4988926;28;20394;-77
2022/07/16 09:07:31;;;;;;;3.28;0.30;;;21.80;83.40;;;;;;5000628;28;20034;-77
2022/07/16 09:09:57;;;;;;;1.42;0.28;;;21.70;83.20;;;;;;4994862;28;20445;-76
2022/07/16 09:12:38;;;;;;;2.45;0.30;;;21.80;83.20;;;;;;5001065;28;20034;-77
2022/07/16 09:15:25;;;;;;;2.42;0.22;;;21.90;82.50;;;;;;4995073;28;20080;-77
2022/07/16 09:18:23;;;;;;;3.03;0.20;;;22.00;81.80;;;;;;4992604;28;20544;-77
2022/07/16 09:20:56;;;;;;;2.63;0.32;;;21.90;81.80;;;;;;4988836;28;20046;-77
2022/07/16 09:23:31;;;;;;;11.32;0.50;;;21.90;81.90;;;;;;4991351;28;20058;-77
2022/07/16 09:26:03;;;;;;;2.03;0.20;;;22.10;81.30;;;;;;4991184;28;20037;-77
2022/07/16 09:28:47;;;;;;;3.83;0.30;;;22.10;79.90;;;;;;4990065;28;20030;-77
2022/07/16 09:31:40;;;;;;;1.88;0.17;;;21.90;80.20;;;;;;4988617;28;20114;-76
2022/07/16 09:34:12;;;;;;;1.40;0.20;;;21.80;80.20;;;;;;4992803;28;20046;-76
2022/07/16 09:36:40;;;;;;;3.08;0.30;;;21.70;80.70;;;;;;4989943;28;20474;-76
2022/07/16 09:39:07;;;;;;;3.08;0.20;;;21.50;81.20;;;;;;4989650;28;20026;-76
2022/07/16 09:41:44;;;;;;;1.35;0.20;;;21.40;81.10;;;;;;4990170;28;20053;-76
2022/07/16 09:44:15;;;;;;;2.10;0.30;;;21.50;80.70;;;;;;4990533;28;20385;-76
2022/07/16 09:47:03;;;;;;;2.70;0.20;;;21.70;80.00;;;;;;4989492;28;20363;-76
2022/07/16 09:49:31;;;;;;;1.85;0.20;;;21.90;78.70;;;;;;4988971;28;20041;-76
2022/07/16 09:51:56;;;;;;;1.52;0.25;;;21.80;78.80;;;;;;4991613;28;20093;-75
2022/07/16 09:54:30;;;;;;;2.63;0.20;;;21.70;78.60;;;;;;4984550;28;20133;-76
2022/07/16 09:57:11;;;;;;;2.60;0.20;;;21.60;78.20;;;;;;4987841;28;20062;-76
2022/07/16 09:59:38;;;;;;;2.25;0.20;;;21.70;77.60;;;;;;4985546;28;20084;-76
2022/07/16 10:02:04;;;;;;;1.80;0.52;;;21.80;76.90;;;;;;4986326;28;20048;-76
2022/07/16 10:04:30;;;;;;;2.95;0.50;;;21.90;76.70;;;;;;4984837;28;20394;-75
2022/07/16 10:06:56;;;;;;;2.42;0.20;;;21.90;76.30;;;;;;4981009;28;20027;-75
2022/07/16 10:09:23;;;;;;;1.80;0.20;;;22.10;75.80;;;;;;4985694;28;20030;-75
2022/07/16 10:11:48;;;;;;;3.25;0.20;;;22.20;74.20;;;;;;4988491;28;20039;-75
2022/07/16 10:14:14;;;;;;;6.72;0.35;;;22.20;74.70;;;;;;4978005;28;20074;-75
2022/07/16 10:16:42;;;;;;;3.67;0.20;;;22.30;74.40;;;;;;4985242;28;20061;-75
2022/07/16 10:19:08;;;;;;;6.28;0.43;;;22.30;74.20;;;;;;4991250;28;20033;-75
2022/07/16 10:21:34;;;;;;;3.25;0.20;;;22.30;74.10;;;;;;4993819;28;20494;-75
2022/07/16 10:24:10;;;;;;;1.80;0.20;;;22.40;73.40;;;;;;4994828;28;20041;-75
2022/07/16 10:26:36;;;;;;;1.67;0.20;;;22.50;73.40;;;;;;4993920;28;20030;-76
2022/07/16 10:29:03;;;;;;;1.48;0.20;;;22.40;72.60;;;;;;4991666;28;20100;-75
2022/07/16 10:34:40;;;;;;;2.42;0.30;;;22.30;72.40;;;;;;4992681;28;20134;-75
2022/07/16 10:37:12;;;;;;;2.55;0.50;;;22.50;71.90;;;;;;4993997;28;20031;-76
2022/07/16 10:40:04;;;;;;;1.67;0.22;;;22.50;71.50;;;;;;4985615;28;20034;-75
2022/07/16 10:42:29;;;;;;;0.88;0.20;;;22.50;71.20;;;;;;4987598;28;20034;-75
2022/07/16 10:44:55;;;;;;;4.53;0.30;;;22.30;70.90;;;;;;4988054;28;20037;-75
2022/07/16 10:47:40;;;;;;;1.15;0.17;;;22.10;70.60;;;;;;4988354;28;20461;-78
2022/07/16 10:50:18;;;;;;;3.63;0.50;;;22.00;71.10;;;;;;4993804;28;20026;-76
2022/07/16 10:52:46;;;;;;;2.22;0.20;;;22.10;70.80;;;;;;4993232;28;20034;-76
2022/07/16 10:55:28;;;;;;;1.73;0.38;;;22.20;70.10;;;;;;4993614;28;20050;-76
2022/07/16 10:57:54;;;;;;;3.95;0.70;;;22.20;70.30;;;;;;4991938;28;20042;-75
2022/07/16 11:00:20;;;;;;;3.60;0.30;;;22.30;69.80;;;;;;4989373;28;20042;-76
2022/07/16 11:02:47;;;;;;;5.07;0.50;;;22.40;69.10;;;;;;4992551;28;20084;-77
2022/07/16 11:05:13;;;;;;;1.15;0.20;;;22.60;68.30;;;;;;4993259;28;20033;-76
2022/07/16 11:07:38;;;;;;;1.83;0.25;;;22.60;67.00;;;;;;4984852;28;20391;-76
2022/07/16 11:10:04;;;;;;;0.93;0.10;;;22.50;66.90;;;;;;4973875;28;20379;-77
2022/07/16 11:12:31;;;;;;;1.33;0.20;;;22.60;66.90;;;;;;4987961;28;20014;-76
2022/07/16 11:14:59;;;;;;;2.35;0.20;;;22.60;66.60;;;;;;4989946;28;20030;-76
2022/07/16 11:17:28;;;;;;;2.67;0.63;;;22.70;66.50;;;;;;4993286;28;20030;-77
2022/07/16 11:19:59;;;;;;;2.47;0.20;;;22.60;65.70;;;;;;4992053;28;20023;-77
2022/07/16 11:22:30;;;;;;;4.18;0.20;;;22.50;66.00;;;;;;4989980;28;20030;-75
2022/07/16 11:25:01;;;;;;;2.47;0.20;;;22.50;66.50;;;;;;4985379;28;20026;-75
2022/07/16 11:27:31;;;;;;;3.60;0.20;;;22.60;65.80;;;;;;4990693;28;20030;-75
2022/07/16 11:29:58;;;;;;;4.50;0.20;;;22.70;65.20;;;;;;4987003;28;20030;-76
2022/07/16 11:32:25;;;;;;;8.68;0.30;;;22.80;65.10;;;;;;4991805;28;20058;-77
2022/07/16 11:34:51;;;;;;;2.67;0.30;;;22.80;64.80;;;;;;4992888;28;20038;-78
2022/07/16 11:37:17;;;;;;;1.00;0.20;;;22.90;64.60;;;;;;4993186;28;20137;-78
2022/07/16 11:39:42;;;;;;;0.90;0.20;;;23.10;64.40;;;;;;4991622;28;20113;-79
2022/07/16 11:42:09;;;;;;;0.70;0.10;;;23.10;64.00;;;;;;4989725;28;20026;-78
2022/07/16 11:44:38;;;;;;;2.83;0.20;;;23.00;64.70;;;;;;4992181;28;20410;-77
2022/07/16 11:47:06;;;;;;;1.67;0.20;;;23.00;64.10;;;;;;4985828;28;20070;-81
2022/07/16 11:49:37;;;;;;;1.92;0.10;;;23.10;63.80;;;;;;4991373;28;20026;-78
2022/07/16 11:52:10;;;;;;;3.15;0.20;;;23.20;62.90;;;;;;4991108;28;20022;-79
2022/07/16 11:54:38;;;;;;;1.40;0.17;;;23.30;62.70;;;;;;4992495;28;20084;-78
2022/07/16 11:57:07;;;;;;;1.75;0.20;;;23.30;62.60;;;;;;4990137;28;20121;-78
2022/07/16 11:59:33;;;;;;;2.00;0.20;;;23.10;62.50;;;;;;4992224;28;20026;-78
2022/07/16 12:02:06;;;;;;;3.03;0.28;;;23.10;62.10;;;;;;4992857;28;20058;-78
2022/07/16 12:04:40;;;;;;;1.67;0.10;;;23.10;62.00;;;;;;4984877;28;20029;-79
2022/07/16 12:07:08;;;;;;;1.75;0.17;;;23.20;62.10;;;;;;4982296;28;20030;-78
2022/07/16 12:09:37;;;;;;;5.80;0.17;;;23.20;62.20;;;;;;4985193;28;20022;-79
2022/07/16 12:12:11;;;;;;;1.35;0.10;;;23.40;61.80;;;;;;4991264;28;20030;-79
2022/07/16 12:14:45;;;;;;;1.85;0.20;;;23.40;61.10;;;;;;4991817;28;20034;-79
2022/07/16 12:17:38;;;;;;;3.25;0.20;;;23.30;60.90;;;;;;4991191;28;20026;-78
2022/07/16 12:20:28;;;;;;;1.40;0.20;;;23.10;61.90;;;;;;4986217;28;20038;-79
2022/07/16 12:23:05;;;;;;;1.73;0.20;;;23.30;62.30;;;;;;4986257;28;20054;-78
2022/07/16 12:25:45;;;;;;;2.00;0.47;;;23.60;62.20;;;;;;4992668;28;20014;-79
2022/07/16 12:28:21;;;;;;;3.72;0.20;;;23.70;61.50;;;;;;4991929;28;20026;-78
2022/07/16 12:30:57;;;;;;;2.80;0.30;;;23.60;61.40;;;;;;4988903;28;20026;-79
2022/07/16 12:33:26;;;;;;;1.05;0.17;;;23.40;62.10;;;;;;4984251;28;20061;-79
2022/07/16 12:36:02;;;;;;;1.73;0.20;;;23.50;61.70;;;;;;4992301;28;20425;-78
2022/07/16 12:38:58;;;;;;;2.95;0.17;;;23.60;61.40;;;;;;4986961;28;20497;-79
2022/07/16 12:41:31;;;;;;;2.05;0.13;;;23.70;61.00;;;;;;4984940;28;20039;-79
2022/07/16 12:44:06;;;;;;;4.75;0.10;;;23.70;60.60;;;;;;5049657;23;20096;-84
2022/07/16 12:46:34;;;;;;;1.30;0.20;;;23.80;60.60;;;;;;4967881;28;20085;-85
2022/07/16 12:49:03;;;;;;;3.15;0.28;;;23.80;60.40;;;;;;4975277;28;20080;-84
2022/07/16 12:53:59;;;;;;;10.15;0.60;;;24.00;60.30;;;;;;4992920;28;20051;-77
2022/07/16 12:59:09;;;;;;;4.32;0.30;;;24.30;60.00;;;;;;5010408;28;20141;-79
2022/07/16 13:01:36;;;;;;;2.55;0.20;;;24.40;59.80;;;;;;5006348;28;20545;-78
2022/07/16 13:04:03;;;;;;;1.80;0.28;;;24.50;59.10;;;;;;5011648;28;20079;-78